sensor_id;sensor_type;location;lat;lon;timestamp;P1;durP1;ratioP1;P2;durP2;ratioP2
58384;SDS011;44185;47.844;8.966;2022-07-23T00:01:27;14.82;;;9.43;;
58384;SDS011;44185;47.844;8.966;2022-07-23T00:03:53;17.13;;;9.30;;
58384;SDS011;44185;47.844;8.966;2022-07-23T00:06:19;15.77;;;8.93;;
58384;SDS011;44185;47.844;8.966;2022-07-23T00:08:45;15.17;;;8.50;;
58384;SDS011;44185;47.844;8.966;2022-07-23T00:11:10;15.82;;;9.82;;
58384;SDS011;44185;47.844;8.966;2022-07-23T00:13:36;15.10;;;9.60;;
58384;SDS011;44185;47.844;8.966;2022-07-23T00:16:01;16.10;;;9.40;;
58384;SDS011;44185;47.844;8.966;2022-07-23T00:18:28;14.57;;;9.05;;
58384;SDS011;44185;47.844;8.966;2022-07-23T00:20:54;15.93;;;9.07;;
58384;SDS011;44185;47.844;8.966;2022-07-23T00:23:19;16.02;;;10.07;;
58384;SDS011;44185;47.844;8.966;2022-07-23T00:25:45;17.27;;;10.50;;
58384;SDS011;44185;47.844;8.966;2022-07-23T00:28:10;18.15;;;10.38;;
58384;SDS011;44185;47.844;8.966;2022-07-23T00:30:36;16.50;;;9.85;;
58384;SDS011;44185;47.844;8.966;2022-07-23T00:33:02;16.70;;;10.00;;
58384;SDS011;44185;47.844;8.966;2022-07-23T00:35:33;19.02;;;10.63;;
58384;SDS011;44185;47.844;8.966;2022-07-23T00:38:00;18.88;;;9.95;;
58384;SDS011;44185;47.844;8.966;2022-07-23T00:40:27;17.45;;;10.52;;
58384;SDS011;44185;47.844;8.966;2022-07-23T00:42:53;19.30;;;10.68;;
58384;SDS011;44185;47.844;8.966;2022-07-23T00:45:19;16.67;;;10.35;;
58384;SDS011;44185;47.844;8.966;2022-07-23T00:47:45;17.20;;;11.03;;
58384;SDS011;44185;47.844;8.966;2022-07-23T00:50:11;17.50;;;10.18;;
58384;SDS011;44185;47.844;8.966;2022-07-23T00:52:38;16.63;;;10.25;;
58384;SDS011;44185;47.844;8.966;2022-07-23T00:55:05;17.95;;;10.80;;
58384;SDS011;44185;47.844;8.966;2022-07-23T00:57:32;16.50;;;9.70;;
58384;SDS011;44185;47.844;8.966;2022-07-23T00:59:58;21.35;;;11.88;;
58384;SDS011;44185;47.844;8.966;2022-07-23T01:02:24;19.30;;;11.70;;
58384;SDS011;44185;47.844;8.966;2022-07-23T01:04:50;20.50;;;12.85;;
58384;SDS011;44185;47.844;8.966;2022-07-23T01:07:15;21.38;;;12.60;;
58384;SDS011;44185;47.844;8.966;2022-07-23T01:09:43;20.08;;;13.02;;
58384;SDS011;44185;47.844;8.966;2022-07-23T01:12:09;26.63;;;15.15;;
58384;SDS011;44185;47.844;8.966;2022-07-23T01:14:35;26.33;;;16.67;;
58384;SDS011;44185;47.844;8.966;2022-07-23T01:17:00;25.85;;;15.52;;
58384;SDS011;44185;47.844;8.966;2022-07-23T01:19:26;23.23;;;15.07;;
58384;SDS011;44185;47.844;8.966;2022-07-23T01:21:51;20.92;;;13.45;;
58384;SDS011;44185;47.844;8.966;2022-07-23T01:24:20;21.20;;;13.52;;
58384;SDS011;44185;47.844;8.966;2022-07-23T01:26:46;21.45;;;12.55;;
58384;SDS011;44185;47.844;8.966;2022-07-23T01:29:13;20.10;;;13.00;;
58384;SDS011;44185;47.844;8.966;2022-07-23T01:31:39;20.00;;;12.18;;
58384;SDS011;44185;47.844;8.966;2022-07-23T01:34:05;20.33;;;11.80;;
58384;SDS011;44185;47.844;8.966;2022-07-23T01:36:30;17.77;;;11.75;;
58384;SDS011;44185;47.844;8.966;2022-07-23T01:38:56;20.13;;;12.65;;
58384;SDS011;44185;47.844;8.966;2022-07-23T01:41:23;21.52;;;13.85;;
58384;SDS011;44185;47.844;8.966;2022-07-23T01:43:49;22.48;;;13.93;;
58384;SDS011;44185;47.844;8.966;2022-07-23T01:46:14;20.98;;;12.60;;
58384;SDS011;44185;47.844;8.966;2022-07-23T01:48:40;24.90;;;14.98;;
58384;SDS011;44185;47.844;8.966;2022-07-23T01:51:06;24.73;;;16.23;;
58384;SDS011;44185;47.844;8.966;2022-07-23T01:53:31;25.33;;;16.35;;
58384;SDS011;44185;47.844;8.966;2022-07-23T01:55:57;23.08;;;15.18;;
58384;SDS011;44185;47.844;8.966;2022-07-23T01:58:23;26.15;;;17.63;;
58384;SDS011;44185;47.844;8.966;2022-07-23T02:00:49;21.80;;;15.13;;
58384;SDS011;44185;47.844;8.966;2022-07-23T02:03:14;19.85;;;13.48;;
58384;SDS011;44185;47.844;8.966;2022-07-23T02:05:40;21.08;;;14.30;;
58384;SDS011;44185;47.844;8.966;2022-07-23T02:08:05;20.25;;;12.55;;
58384;SDS011;44185;47.844;8.966;2022-07-23T02:10:31;20.20;;;12.50;;
58384;SDS011;44185;47.844;8.966;2022-07-23T02:12:56;20.98;;;13.27;;
58384;SDS011;44185;47.844;8.966;2022-07-23T02:15:23;23.40;;;13.70;;
58384;SDS011;44185;47.844;8.966;2022-07-23T02:17:49;23.35;;;15.27;;
58384;SDS011;44185;47.844;8.966;2022-07-23T02:20:14;24.00;;;16.30;;
58384;SDS011;44185;47.844;8.966;2022-07-23T02:22:40;28.73;;;18.52;;
58384;SDS011;44185;47.844;8.966;2022-07-23T02:25:06;17.63;;;11.73;;
58384;SDS011;44185;47.844;8.966;2022-07-23T02:27:32;15.68;;;9.95;;
58384;SDS011;44185;47.844;8.966;2022-07-23T02:29:58;16.75;;;10.45;;
58384;SDS011;44185;47.844;8.966;2022-07-23T02:32:25;14.98;;;8.70;;
58384;SDS011;44185;47.844;8.966;2022-07-23T02:34:51;18.15;;;10.77;;
58384;SDS011;44185;47.844;8.966;2022-07-23T02:37:17;19.88;;;12.07;;
58384;SDS011;44185;47.844;8.966;2022-07-23T02:39:42;20.38;;;12.45;;
58384;SDS011;44185;47.844;8.966;2022-07-23T02:42:08;20.27;;;12.07;;
58384;SDS011;44185;47.844;8.966;2022-07-23T02:44:34;19.65;;;12.60;;
58384;SDS011;44185;47.844;8.966;2022-07-23T02:46:59;20.58;;;12.98;;
58384;SDS011;44185;47.844;8.966;2022-07-23T02:49:26;19.73;;;12.27;;
58384;SDS011;44185;47.844;8.966;2022-07-23T02:51:52;22.05;;;14.05;;
58384;SDS011;44185;47.844;8.966;2022-07-23T02:54:17;21.35;;;13.15;;
58384;SDS011;44185;47.844;8.966;2022-07-23T02:56:43;17.95;;;10.60;;
58384;SDS011;44185;47.844;8.966;2022-07-23T02:59:08;20.80;;;13.40;;
58384;SDS011;44185;47.844;8.966;2022-07-23T03:01:34;21.55;;;11.45;;
58384;SDS011;44185;47.844;8.966;2022-07-23T03:03:59;22.42;;;13.02;;
58384;SDS011;44185;47.844;8.966;2022-07-23T03:06:26;19.47;;;11.37;;
58384;SDS011;44185;47.844;8.966;2022-07-23T03:08:51;25.40;;;15.05;;
58384;SDS011;44185;47.844;8.966;2022-07-23T03:11:17;23.35;;;13.73;;
58384;SDS011;44185;47.844;8.966;2022-07-23T03:13:42;19.20;;;12.07;;
58384;SDS011;44185;47.844;8.966;2022-07-23T03:16:08;16.65;;;10.43;;
58384;SDS011;44185;47.844;8.966;2022-07-23T03:18:34;15.00;;;8.80;;
58384;SDS011;44185;47.844;8.966;2022-07-23T03:20:59;18.52;;;10.45;;
58384;SDS011;44185;47.844;8.966;2022-07-23T03:23:26;21.47;;;12.50;;
58384;SDS011;44185;47.844;8.966;2022-07-23T03:25:52;17.52;;;9.75;;
58384;SDS011;44185;47.844;8.966;2022-07-23T03:28:17;16.00;;;9.40;;
58384;SDS011;44185;47.844;8.966;2022-07-23T03:30:43;14.27;;;7.95;;
58384;SDS011;44185;47.844;8.966;2022-07-23T03:33:09;16.35;;;8.90;;
58384;SDS011;44185;47.844;8.966;2022-07-23T03:35:34;13.57;;;7.93;;
58384;SDS011;44185;47.844;8.966;2022-07-23T03:38:00;16.67;;;8.73;;
58384;SDS011;44185;47.844;8.966;2022-07-23T03:40:26;13.68;;;7.72;;
58384;SDS011;44185;47.844;8.966;2022-07-23T03:42:52;14.77;;;7.78;;
58384;SDS011;44185;47.844;8.966;2022-07-23T03:45:17;12.35;;;7.60;;
58384;SDS011;44185;47.844;8.966;2022-07-23T03:47:43;13.57;;;7.72;;
58384;SDS011;44185;47.844;8.966;2022-07-23T03:50:08;15.38;;;7.63;;
58384;SDS011;44185;47.844;8.966;2022-07-23T03:52:35;13.50;;;7.47;;
58384;SDS011;44185;47.844;8.966;2022-07-23T03:55:00;13.48;;;7.43;;
58384;SDS011;44185;47.844;8.966;2022-07-23T03:57:27;17.42;;;8.00;;
58384;SDS011;44185;47.844;8.966;2022-07-23T03:59:53;14.95;;;8.23;;
58384;SDS011;44185;47.844;8.966;2022-07-23T04:02:19;11.98;;;7.32;;
58384;SDS011;44185;47.844;8.966;2022-07-23T04:04:44;13.40;;;7.03;;
58384;SDS011;44185;47.844;8.966;2022-07-23T04:07:10;12.80;;;6.82;;
58384;SDS011;44185;47.844;8.966;2022-07-23T04:09:35;14.05;;;6.55;;
58384;SDS011;44185;47.844;8.966;2022-07-23T04:12:01;22.17;;;9.60;;
58384;SDS011;44185;47.844;8.966;2022-07-23T04:14:28;19.85;;;10.88;;
58384;SDS011;44185;47.844;8.966;2022-07-23T04:16:53;17.08;;;9.85;;
58384;SDS011;44185;47.844;8.966;2022-07-23T04:19:19;22.95;;;11.07;;
58384;SDS011;44185;47.844;8.966;2022-07-23T04:21:44;13.35;;;7.80;;
58384;SDS011;44185;47.844;8.966;2022-07-23T04:24:10;13.18;;;7.85;;
58384;SDS011;44185;47.844;8.966;2022-07-23T04:26:35;12.68;;;7.10;;
58384;SDS011;44185;47.844;8.966;2022-07-23T04:29:00;13.13;;;7.80;;
58384;SDS011;44185;47.844;8.966;2022-07-23T04:31:27;12.48;;;7.25;;
58384;SDS011;44185;47.844;8.966;2022-07-23T04:33:53;13.82;;;7.18;;
58384;SDS011;44185;47.844;8.966;2022-07-23T04:36:19;12.63;;;7.15;;
58384;SDS011;44185;47.844;8.966;2022-07-23T04:38:44;14.50;;;8.20;;
58384;SDS011;44185;47.844;8.966;2022-07-23T04:41:10;13.75;;;7.65;;
58384;SDS011;44185;47.844;8.966;2022-07-23T04:43:35;15.48;;;8.10;;
58384;SDS011;44185;47.844;8.966;2022-07-23T04:46:01;12.68;;;7.28;;
58384;SDS011;44185;47.844;8.966;2022-07-23T04:48:27;11.23;;;6.30;;
58384;SDS011;44185;47.844;8.966;2022-07-23T04:50:53;12.23;;;7.25;;
58384;SDS011;44185;47.844;8.966;2022-07-23T04:53:19;12.55;;;7.10;;
58384;SDS011;44185;47.844;8.966;2022-07-23T04:55:44;15.63;;;7.03;;
58384;SDS011;44185;47.844;8.966;2022-07-23T04:58:10;13.00;;;7.63;;
58384;SDS011;44185;47.844;8.966;2022-07-23T05:00:35;14.32;;;8.20;;
58384;SDS011;44185;47.844;8.966;2022-07-23T05:03:00;20.98;;;11.70;;
58384;SDS011;44185;47.844;8.966;2022-07-23T05:05:27;18.92;;;10.80;;
58384;SDS011;44185;47.844;8.966;2022-07-23T05:07:53;21.70;;;13.10;;
58384;SDS011;44185;47.844;8.966;2022-07-23T05:10:19;21.35;;;12.15;;
58384;SDS011;44185;47.844;8.966;2022-07-23T05:12:44;17.60;;;9.68;;
58384;SDS011;44185;47.844;8.966;2022-07-23T05:15:10;19.77;;;11.35;;
58384;SDS011;44185;47.844;8.966;2022-07-23T05:17:35;18.45;;;10.48;;
58384;SDS011;44185;47.844;8.966;2022-07-23T05:20:01;21.20;;;12.50;;
58384;SDS011;44185;47.844;8.966;2022-07-23T05:22:28;21.67;;;13.75;;
58384;SDS011;44185;47.844;8.966;2022-07-23T05:24:54;27.85;;;18.13;;
58384;SDS011;44185;47.844;8.966;2022-07-23T05:27:19;23.02;;;13.98;;
58384;SDS011;44185;47.844;8.966;2022-07-23T05:29:45;21.55;;;12.25;;
58384;SDS011;44185;47.844;8.966;2022-07-23T05:32:10;21.98;;;12.65;;
58384;SDS011;44185;47.844;8.966;2022-07-23T05:34:36;21.73;;;12.05;;
58384;SDS011;44185;47.844;8.966;2022-07-23T05:37:01;18.13;;;10.98;;
58384;SDS011;44185;47.844;8.966;2022-07-23T05:39:28;19.83;;;11.73;;
58384;SDS011;44185;47.844;8.966;2022-07-23T05:41:54;21.23;;;11.25;;
58384;SDS011;44185;47.844;8.966;2022-07-23T05:44:19;17.40;;;10.65;;
58384;SDS011;44185;47.844;8.966;2022-07-23T05:46:45;19.40;;;10.88;;
58384;SDS011;44185;47.844;8.966;2022-07-23T05:49:10;16.90;;;10.15;;
58384;SDS011;44185;47.844;8.966;2022-07-23T05:51:35;16.70;;;9.65;;
58384;SDS011;44185;47.844;8.966;2022-07-23T05:54:01;18.13;;;10.20;;
58384;SDS011;44185;47.844;8.966;2022-07-23T05:56:28;17.02;;;9.98;;
58384;SDS011;44185;47.844;8.966;2022-07-23T05:58:53;17.85;;;10.18;;
58384;SDS011;44185;47.844;8.966;2022-07-23T06:01:19;17.00;;;9.85;;
58384;SDS011;44185;47.844;8.966;2022-07-23T06:03:44;15.13;;;9.05;;
58384;SDS011;44185;47.844;8.966;2022-07-23T06:06:10;17.88;;;8.93;;
58384;SDS011;44185;47.844;8.966;2022-07-23T06:08:35;16.50;;;9.60;;
58384;SDS011;44185;47.844;8.966;2022-07-23T06:11:01;15.93;;;8.45;;
58384;SDS011;44185;47.844;8.966;2022-07-23T06:13:28;15.32;;;8.95;;
58384;SDS011;44185;47.844;8.966;2022-07-23T06:15:53;13.48;;;8.40;;
58384;SDS011;44185;47.844;8.966;2022-07-23T06:18:19;14.85;;;8.43;;
58384;SDS011;44185;47.844;8.966;2022-07-23T06:20:44;13.95;;;8.55;;
58384;SDS011;44185;47.844;8.966;2022-07-23T06:23:10;14.20;;;7.78;;
58384;SDS011;44185;47.844;8.966;2022-07-23T06:25:35;14.45;;;7.78;;
58384;SDS011;44185;47.844;8.966;2022-07-23T06:28:01;12.85;;;7.68;;
58384;SDS011;44185;47.844;8.966;2022-07-23T06:30:27;14.43;;;8.15;;
58384;SDS011;44185;47.844;8.966;2022-07-23T06:32:53;13.40;;;8.05;;
58384;SDS011;44185;47.844;8.966;2022-07-23T06:35:19;14.90;;;8.32;;
58384;SDS011;44185;47.844;8.966;2022-07-23T06:37:44;13.82;;;8.05;;
58384;SDS011;44185;47.844;8.966;2022-07-23T06:40:10;12.75;;;7.75;;
58384;SDS011;44185;47.844;8.966;2022-07-23T06:42:36;12.07;;;7.85;;
58384;SDS011;44185;47.844;8.966;2022-07-23T06:45:02;13.15;;;8.13;;
58384;SDS011;44185;47.844;8.966;2022-07-23T06:47:29;12.05;;;7.88;;
58384;SDS011;44185;47.844;8.966;2022-07-23T06:49:54;12.48;;;7.47;;
58384;SDS011;44185;47.844;8.966;2022-07-23T06:52:20;15.20;;;7.90;;
58384;SDS011;44185;47.844;8.966;2022-07-23T06:54:45;12.77;;;7.55;;
58384;SDS011;44185;47.844;8.966;2022-07-23T06:57:11;12.73;;;7.95;;
58384;SDS011;44185;47.844;8.966;2022-07-23T06:59:36;12.50;;;7.43;;
58384;SDS011;44185;47.844;8.966;2022-07-23T07:02:02;13.55;;;8.25;;
58384;SDS011;44185;47.844;8.966;2022-07-23T07:04:29;12.18;;;7.70;;
58384;SDS011;44185;47.844;8.966;2022-07-23T07:06:54;14.23;;;7.72;;
58384;SDS011;44185;47.844;8.966;2022-07-23T07:09:20;16.15;;;8.98;;
58384;SDS011;44185;47.844;8.966;2022-07-23T07:11:45;14.82;;;8.63;;
58384;SDS011;44185;47.844;8.966;2022-07-23T07:14:11;13.80;;;8.43;;
58384;SDS011;44185;47.844;8.966;2022-07-23T07:16:36;15.40;;;8.73;;
58384;SDS011;44185;47.844;8.966;2022-07-23T07:19:02;13.75;;;8.35;;
58384;SDS011;44185;47.844;8.966;2022-07-23T07:21:28;16.77;;;8.93;;
58384;SDS011;44185;47.844;8.966;2022-07-23T07:23:54;14.02;;;8.23;;
58384;SDS011;44185;47.844;8.966;2022-07-23T07:26:19;13.88;;;8.60;;
58384;SDS011;44185;47.844;8.966;2022-07-23T07:28:45;14.68;;;8.98;;
58384;SDS011;44185;47.844;8.966;2022-07-23T07:31:10;15.93;;;9.45;;
58384;SDS011;44185;47.844;8.966;2022-07-23T07:33:36;15.60;;;8.82;;
58384;SDS011;44185;47.844;8.966;2022-07-23T07:36:01;13.65;;;8.23;;
58384;SDS011;44185;47.844;8.966;2022-07-23T07:38:28;13.23;;;7.93;;
58384;SDS011;44185;47.844;8.966;2022-07-23T07:40:54;15.38;;;8.38;;
58384;SDS011;44185;47.844;8.966;2022-07-23T07:43:19;14.82;;;8.90;;
58384;SDS011;44185;47.844;8.966;2022-07-23T07:45:45;14.65;;;8.80;;
58384;SDS011;44185;47.844;8.966;2022-07-23T07:48:10;13.32;;;8.07;;
58384;SDS011;44185;47.844;8.966;2022-07-23T07:50:36;14.13;;;8.63;;
58384;SDS011;44185;47.844;8.966;2022-07-23T07:53:02;12.18;;;7.50;;
58384;SDS011;44185;47.844;8.966;2022-07-23T07:55:29;13.30;;;8.02;;
58384;SDS011;44185;47.844;8.966;2022-07-23T07:57:54;14.18;;;8.38;;
58384;SDS011;44185;47.844;8.966;2022-07-23T08:00:20;13.55;;;8.75;;
58384;SDS011;44185;47.844;8.966;2022-07-23T08:02:46;13.30;;;8.70;;
58384;SDS011;44185;47.844;8.966;2022-07-23T08:05:12;13.13;;;8.23;;
58384;SDS011;44185;47.844;8.966;2022-07-23T08:07:38;13.07;;;8.07;;
58384;SDS011;44185;47.844;8.966;2022-07-23T08:10:05;15.70;;;8.52;;
58384;SDS011;44185;47.844;8.966;2022-07-23T08:12:38;15.57;;;8.45;;
58384;SDS011;44185;47.844;8.966;2022-07-23T08:15:05;8.60;;;5.93;;
58384;SDS011;44185;47.844;8.966;2022-07-23T08:17:31;14.20;;;8.73;;
58384;SDS011;44185;47.844;8.966;2022-07-23T08:19:56;13.98;;;8.68;;
58384;SDS011;44185;47.844;8.966;2022-07-23T08:22:22;13.50;;;8.25;;
58384;SDS011;44185;47.844;8.966;2022-07-23T08:24:47;13.35;;;8.05;;
58384;SDS011;44185;47.844;8.966;2022-07-23T08:27:13;13.95;;;8.27;;
58384;SDS011;44185;47.844;8.966;2022-07-23T08:29:39;16.02;;;9.55;;
58384;SDS011;44185;47.844;8.966;2022-07-23T08:32:05;13.98;;;8.40;;
58384;SDS011;44185;47.844;8.966;2022-07-23T08:34:31;15.52;;;9.23;;
58384;SDS011;44185;47.844;8.966;2022-07-23T08:36:56;15.32;;;9.25;;
58384;SDS011;44185;47.844;8.966;2022-07-23T08:39:21;14.90;;;8.60;;
58384;SDS011;44185;47.844;8.966;2022-07-23T08:41:47;15.15;;;9.10;;
58384;SDS011;44185;47.844;8.966;2022-07-23T08:44:14;17.30;;;9.23;;
58384;SDS011;44185;47.844;8.966;2022-07-23T08:46:42;17.88;;;9.15;;
58384;SDS011;44185;47.844;8.966;2022-07-23T08:49:08;14.48;;;9.32;;
58384;SDS011;44185;47.844;8.966;2022-07-23T08:51:34;16.43;;;9.50;;
58384;SDS011;44185;47.844;8.966;2022-07-23T08:53:59;16.70;;;9.50;;
58384;SDS011;44185;47.844;8.966;2022-07-23T08:56:25;14.50;;;8.75;;
58384;SDS011;44185;47.844;8.966;2022-07-23T08:58:53;12.57;;;8.50;;
58384;SDS011;44185;47.844;8.966;2022-07-23T09:01:19;14.82;;;9.00;;
58384;SDS011;44185;47.844;8.966;2022-07-23T09:03:45;15.20;;;8.60;;
58384;SDS011;44185;47.844;8.966;2022-07-23T09:06:11;14.65;;;8.88;;
58384;SDS011;44185;47.844;8.966;2022-07-23T09:08:37;16.05;;;8.60;;
58384;SDS011;44185;47.844;8.966;2022-07-23T09:11:04;14.55;;;8.55;;
58384;SDS011;44185;47.844;8.966;2022-07-23T09:13:32;13.80;;;8.70;;
58384;SDS011;44185;47.844;8.966;2022-07-23T09:16:00;15.37;;;8.30;;
58384;SDS011;44185;47.844;8.966;2022-07-23T09:18:28;12.65;;;8.25;;
58384;SDS011;44185;47.844;8.966;2022-07-23T09:21:06;16.33;;;9.40;;
58384;SDS011;44185;47.844;8.966;2022-07-23T09:23:36;14.93;;;8.45;;
58384;SDS011;44185;47.844;8.966;2022-07-23T09:26:06;14.20;;;8.40;;
58384;SDS011;44185;47.844;8.966;2022-07-23T09:31:15;14.07;;;8.07;;
58384;SDS011;44185;47.844;8.966;2022-07-23T09:33:41;13.80;;;7.97;;
58384;SDS011;44185;47.844;8.966;2022-07-23T09:36:08;12.02;;;7.43;;
58384;SDS011;44185;47.844;8.966;2022-07-23T09:38:34;13.32;;;8.32;;
58384;SDS011;44185;47.844;8.966;2022-07-23T09:41:06;14.02;;;8.77;;
58384;SDS011;44185;47.844;8.966;2022-07-23T09:43:31;14.57;;;8.68;;
58384;SDS011;44185;47.844;8.966;2022-07-23T09:46:06;15.25;;;8.88;;
58384;SDS011;44185;47.844;8.966;2022-07-23T09:48:42;13.73;;;9.20;;
58384;SDS011;44185;47.844;8.966;2022-07-23T09:51:09;14.13;;;8.20;;
58384;SDS011;44185;47.844;8.966;2022-07-23T09:53:34;18.73;;;9.32;;
58384;SDS011;44185;47.844;8.966;2022-07-23T09:55:59;14.73;;;8.73;;
58384;SDS011;44185;47.844;8.966;2022-07-23T09:58:27;17.13;;;9.50;;
58384;SDS011;44185;47.844;8.966;2022-07-23T10:00:53;12.98;;;7.88;;
58384;SDS011;44185;47.844;8.966;2022-07-23T10:03:20;15.40;;;8.98;;
58384;SDS011;44185;47.844;8.966;2022-07-23T10:05:46;13.75;;;7.43;;
58384;SDS011;44185;47.844;8.966;2022-07-23T10:08:14;11.98;;;8.00;;
58384;SDS011;44185;47.844;8.966;2022-07-23T10:10:43;13.30;;;7.83;;
58384;SDS011;44185;47.844;8.966;2022-07-23T10:13:11;14.38;;;8.90;;
58384;SDS011;44185;47.844;8.966;2022-07-23T10:15:36;14.15;;;8.82;;
58384;SDS011;44185;47.844;8.966;2022-07-23T10:18:04;16.73;;;8.60;;
58384;SDS011;44185;47.844;8.966;2022-07-23T10:20:30;14.23;;;8.77;;
58384;SDS011;44185;47.844;8.966;2022-07-23T10:22:57;16.50;;;9.15;;
58384;SDS011;44185;47.844;8.966;2022-07-23T10:25:32;14.68;;;8.52;;
58384;SDS011;44185;47.844;8.966;2022-07-23T10:28:06;14.00;;;7.93;;
58384;SDS011;44185;47.844;8.966;2022-07-23T10:30:44;15.50;;;8.75;;
58384;SDS011;44185;47.844;8.966;2022-07-23T10:33:23;15.07;;;8.52;;
58384;SDS011;44185;47.844;8.966;2022-07-23T10:35:56;14.43;;;9.10;;
58384;SDS011;44185;47.844;8.966;2022-07-23T10:38:29;14.05;;;9.45;;
58384;SDS011;44185;47.844;8.966;2022-07-23T10:41:01;14.05;;;9.00;;
58384;SDS011;44185;47.844;8.966;2022-07-23T10:43:28;13.25;;;7.50;;
58384;SDS011;44185;47.844;8.966;2022-07-23T10:45:54;13.55;;;9.02;;
58384;SDS011;44185;47.844;8.966;2022-07-23T10:48:20;14.10;;;8.98;;
58384;SDS011;44185;47.844;8.966;2022-07-23T10:51:06;14.52;;;9.30;;
58384;SDS011;44185;47.844;8.966;2022-07-23T10:59:29;15.55;;;8.80;;
58384;SDS011;44185;47.844;8.966;2022-07-23T11:01:55;15.88;;;9.60;;
58384;SDS011;44185;47.844;8.966;2022-07-23T11:04:48;14.10;;;9.00;;
58384;SDS011;44185;47.844;8.966;2022-07-23T11:07:15;13.55;;;8.90;;
58384;SDS011;44185;47.844;8.966;2022-07-23T11:09:41;13.75;;;8.35;;
58384;SDS011;44185;47.844;8.966;2022-07-23T11:15:04;13.63;;;8.75;;
58384;SDS011;44185;47.844;8.966;2022-07-23T11:17:32;14.30;;;9.15;;
58384;SDS011;44185;47.844;8.966;2022-07-23T11:20:21;15.23;;;9.40;;
58384;SDS011;44185;47.844;8.966;2022-07-23T11:22:52;14.95;;;9.63;;
58384;SDS011;44185;47.844;8.966;2022-07-23T11:25:31;16.50;;;9.35;;
58384;SDS011;44185;47.844;8.966;2022-07-23T11:28:09;13.45;;;8.38;;
58384;SDS011;44185;47.844;8.966;2022-07-23T11:30:37;16.38;;;10.20;;
58384;SDS011;44185;47.844;8.966;2022-07-23T11:33:15;14.27;;;9.40;;
58384;SDS011;44185;47.844;8.966;2022-07-23T11:35:46;16.10;;;9.88;;
58384;SDS011;44185;47.844;8.966;2022-07-23T11:38:15;16.77;;;10.07;;
58384;SDS011;44185;47.844;8.966;2022-07-23T11:40:43;14.82;;;9.57;;
58384;SDS011;44185;47.844;8.966;2022-07-23T11:43:12;13.77;;;9.82;;
58384;SDS011;44185;47.844;8.966;2022-07-23T11:45:39;16.37;;;9.27;;
58384;SDS011;44185;47.844;8.966;2022-07-23T11:48:06;16.27;;;10.38;;
58384;SDS011;44185;47.844;8.966;2022-07-23T11:50:34;16.20;;;9.98;;
58384;SDS011;44185;47.844;8.966;2022-07-23T11:53:00;15.60;;;9.15;;
58384;SDS011;44185;47.844;8.966;2022-07-23T11:55:25;15.23;;;9.20;;
58384;SDS011;44185;47.844;8.966;2022-07-23T11:57:51;15.13;;;9.85;;
58384;SDS011;44185;47.844;8.966;2022-07-23T12:00:19;14.70;;;9.45;;
58384;SDS011;44185;47.844;8.966;2022-07-23T12:02:46;15.40;;;9.83;;
58384;SDS011;44185;47.844;8.966;2022-07-23T12:05:13;15.00;;;10.00;;
58384;SDS011;44185;47.844;8.966;2022-07-23T12:07:41;14.32;;;9.70;;
58384;SDS011;44185;47.844;8.966;2022-07-23T12:10:09;15.00;;;9.50;;
58384;SDS011;44185;47.844;8.966;2022-07-23T12:12:37;16.08;;;9.95;;
58384;SDS011;44185;47.844;8.966;2022-07-23T12:15:04;15.23;;;9.38;;
58384;SDS011;44185;47.844;8.966;2022-07-23T12:17:34;14.18;;;8.93;;
58384;SDS011;44185;47.844;8.966;2022-07-23T12:20:00;15.82;;;10.18;;
58384;SDS011;44185;47.844;8.966;2022-07-23T12:22:33;14.10;;;9.75;;
58384;SDS011;44185;47.844;8.966;2022-07-23T12:25:00;14.52;;;9.50;;
58384;SDS011;44185;47.844;8.966;2022-07-23T12:27:27;15.52;;;9.85;;
58384;SDS011;44185;47.844;8.966;2022-07-23T12:29:53;14.13;;;8.68;;
58384;SDS011;44185;47.844;8.966;2022-07-23T12:32:20;15.63;;;9.93;;
58384;SDS011;44185;47.844;8.966;2022-07-23T12:34:53;15.45;;;9.52;;
58384;SDS011;44185;47.844;8.966;2022-07-23T12:37:30;16.38;;;9.48;;
58384;SDS011;44185;47.844;8.966;2022-07-23T12:39:56;15.43;;;9.88;;
58384;SDS011;44185;47.844;8.966;2022-07-23T12:42:22;15.98;;;9.75;;
58384;SDS011;44185;47.844;8.966;2022-07-23T12:45:04;14.75;;;9.57;;
58384;SDS011;44185;47.844;8.966;2022-07-23T12:50:40;13.80;;;9.23;;
58384;SDS011;44185;47.844;8.966;2022-07-23T12:53:08;13.18;;;8.80;;
58384;SDS011;44185;47.844;8.966;2022-07-23T12:55:36;13.00;;;9.00;;
58384;SDS011;44185;47.844;8.966;2022-07-23T12:58:03;14.60;;;9.32;;
58384;SDS011;44185;47.844;8.966;2022-07-23T13:00:30;15.77;;;9.20;;
58384;SDS011;44185;47.844;8.966;2022-07-23T13:02:55;13.77;;;9.50;;
58384;SDS011;44185;47.844;8.966;2022-07-23T13:05:21;15.87;;;9.83;;
58384;SDS011;44185;47.844;8.966;2022-07-23T13:07:47;15.43;;;10.05;;
58384;SDS011;44185;47.844;8.966;2022-07-23T13:10:13;15.10;;;9.80;;
58384;SDS011;44185;47.844;8.966;2022-07-23T13:12:39;15.53;;;9.97;;
58384;SDS011;44185;47.844;8.966;2022-07-23T13:15:04;14.75;;;10.02;;
58384;SDS011;44185;47.844;8.966;2022-07-23T13:17:30;14.18;;;9.60;;
58384;SDS011;44185;47.844;8.966;2022-07-23T13:19:56;14.73;;;9.70;;
58384;SDS011;44185;47.844;8.966;2022-07-23T13:22:21;16.73;;;10.02;;
58384;SDS011;44185;47.844;8.966;2022-07-23T13:24:48;14.60;;;9.63;;
58384;SDS011;44185;47.844;8.966;2022-07-23T13:27:14;14.52;;;9.52;;
58384;SDS011;44185;47.844;8.966;2022-07-23T13:29:39;14.75;;;9.63;;
58384;SDS011;44185;47.844;8.966;2022-07-23T13:32:05;14.40;;;9.85;;
58384;SDS011;44185;47.844;8.966;2022-07-23T13:34:31;14.43;;;9.40;;
58384;SDS011;44185;47.844;8.966;2022-07-23T13:36:56;15.60;;;9.82;;
58384;SDS011;44185;47.844;8.966;2022-07-23T13:39:21;15.45;;;9.70;;
58384;SDS011;44185;47.844;8.966;2022-07-23T13:41:48;15.82;;;9.63;;
58384;SDS011;44185;47.844;8.966;2022-07-23T13:44:14;15.18;;;9.80;;
58384;SDS011;44185;47.844;8.966;2022-07-23T13:46:39;14.38;;;9.40;;
58384;SDS011;44185;47.844;8.966;2022-07-23T13:49:05;15.18;;;9.70;;
58384;SDS011;44185;47.844;8.966;2022-07-23T13:51:30;14.38;;;9.15;;
58384;SDS011;44185;47.844;8.966;2022-07-23T13:53:56;14.30;;;9.57;;
58384;SDS011;44185;47.844;8.966;2022-07-23T13:56:21;13.38;;;9.10;;
58384;SDS011;44185;47.844;8.966;2022-07-23T13:58:48;14.65;;;9.43;;
58384;SDS011;44185;47.844;8.966;2022-07-23T14:01:14;13.70;;;9.32;;
58384;SDS011;44185;47.844;8.966;2022-07-23T14:03:39;16.20;;;9.68;;
58384;SDS011;44185;47.844;8.966;2022-07-23T14:06:05;14.38;;;9.27;;
58384;SDS011;44185;47.844;8.966;2022-07-23T14:08:30;14.35;;;8.90;;
58384;SDS011;44185;47.844;8.966;2022-07-23T14:10:56;16.33;;;9.48;;
58384;SDS011;44185;47.844;8.966;2022-07-23T14:13:21;14.60;;;9.35;;
58384;SDS011;44185;47.844;8.966;2022-07-23T14:15:48;15.10;;;9.77;;
58384;SDS011;44185;47.844;8.966;2022-07-23T14:18:14;14.60;;;9.75;;
58384;SDS011;44185;47.844;8.966;2022-07-23T14:20:39;14.05;;;8.93;;
58384;SDS011;44185;47.844;8.966;2022-07-23T14:23:05;13.60;;;9.53;;
58384;SDS011;44185;47.844;8.966;2022-07-23T14:25:30;14.27;;;9.55;;
58384;SDS011;44185;47.844;8.966;2022-07-23T14:27:56;14.63;;;9.52;;
58384;SDS011;44185;47.844;8.966;2022-07-23T14:30:21;15.00;;;9.88;;
58384;SDS011;44185;47.844;8.966;2022-07-23T14:32:48;14.00;;;9.95;;
58384;SDS011;44185;47.844;8.966;2022-07-23T14:35:13;14.07;;;9.57;;
58384;SDS011;44185;47.844;8.966;2022-07-23T14:37:39;15.20;;;9.77;;
58384;SDS011;44185;47.844;8.966;2022-07-23T14:40:05;14.10;;;9.77;;
58384;SDS011;44185;47.844;8.966;2022-07-23T14:42:31;15.85;;;9.85;;